createdAt,value
2018-04-18T00:00:22.321Z,14.80
2018-04-18T00:02:49.995Z,14.70
2018-04-18T00:05:18.576Z,14.60
2018-04-18T00:07:47.445Z,14.60
2018-04-18T00:10:15.076Z,14.50
2018-04-18T00:12:42.743Z,14.50
2018-04-18T00:15:11.155Z,14.30
2018-04-18T00:17:38.952Z,14.30
2018-04-18T00:20:06.614Z,14.20
2018-04-18T00:22:34.317Z,14.20
2018-04-18T00:25:01.941Z,14.20
2018-04-18T00:27:29.562Z,14.20
2018-04-18T00:29:57.162Z,14.20
2018-04-18T00:32:24.734Z,14.20
2018-04-18T00:34:52.363Z,14.20
2018-04-18T00:37:19.960Z,14.20
2018-04-18T00:39:47.584Z,14.20
2018-04-18T00:42:15.175Z,14.20
2018-04-18T00:44:42.772Z,14.20
2018-04-18T00:47:10.393Z,14.20
2018-04-18T00:49:38.108Z,14.20
2018-04-18T00:52:05.685Z,14.20
2018-04-18T00:54:33.309Z,14.20
2018-04-18T00:57:01.691Z,14.20
2018-04-18T00:59:30.058Z,14.20
2018-04-18T01:01:58.384Z,14.20
2018-04-18T01:04:26.028Z,14.20
2018-04-18T01:06:54.402Z,14.20
2018-04-18T01:09:22.006Z,14.20
2018-04-18T01:11:49.575Z,14.20
2018-04-18T01:14:18.286Z,14.10
2018-04-18T01:16:45.865Z,14.10
2018-04-18T01:19:14.217Z,14.10
2018-04-18T01:21:41.787Z,14.00
2018-04-18T01:24:09.394Z,14.10
2018-04-18T01:26:38.135Z,14.10
2018-04-18T01:29:05.717Z,14.00
2018-04-18T01:31:33.334Z,14.10
2018-04-18T01:34:01.693Z,14.10
2018-04-18T01:36:29.297Z,14.00
2018-04-18T01:38:57.665Z,14.10
2018-04-18T01:41:25.337Z,14.00
2018-04-18T01:43:52.943Z,14.10
2018-04-18T01:46:20.520Z,14.10
2018-04-18T01:48:48.126Z,14.00
2018-04-18T01:51:15.758Z,14.00
2018-04-18T01:53:44.149Z,14.00
2018-04-18T01:56:11.741Z,14.00
2018-04-18T01:58:39.351Z,14.00
2018-04-18T02:01:07.004Z,14.00
2018-04-18T02:03:34.602Z,13.90
2018-04-18T02:06:02.221Z,13.90
2018-04-18T02:08:29.826Z,13.90
2018-04-18T02:10:57.438Z,13.80
2018-04-18T02:13:26.002Z,13.80
2018-04-18T02:15:53.565Z,13.70
2018-04-18T02:18:21.946Z,13.70
2018-04-18T02:20:49.530Z,13.60
2018-04-18T02:23:17.119Z,13.50
2018-04-18T02:25:44.797Z,13.50
2018-04-18T02:28:12.374Z,13.40
2018-04-18T02:30:39.997Z,13.40
2018-04-18T02:33:07.640Z,13.40
2018-04-18T02:35:35.255Z,13.30
2018-04-18T02:38:02.833Z,13.30
2018-04-18T02:40:30.413Z,13.20
2018-04-18T02:42:58.085Z,13.00
2018-04-18T02:45:25.694Z,12.90
2018-04-18T02:47:53.278Z,12.70
2018-04-18T02:50:20.930Z,12.60
2018-04-18T02:52:49.890Z,12.50
2018-04-18T02:55:17.485Z,12.40
2018-04-18T02:57:45.065Z,12.50
2018-04-18T03:00:12.727Z,12.50
2018-04-18T03:02:40.326Z,12.50
2018-04-18T03:05:07.969Z,12.40
2018-04-18T03:07:35.545Z,12.40
2018-04-18T03:10:03.130Z,12.40
2018-04-18T03:12:30.772Z,12.40
2018-04-18T03:14:58.375Z,12.40
2018-04-18T03:17:26.022Z,12.50
2018-04-18T03:19:54.350Z,12.50
2018-04-18T03:22:21.964Z,12.50
2018-04-18T03:24:50.350Z,12.50
2018-04-18T03:27:18.683Z,12.50
2018-04-18T03:29:46.311Z,12.40
2018-04-18T03:32:14.647Z,12.40
2018-04-18T03:34:42.300Z,12.30
2018-04-18T03:37:09.944Z,12.40
2018-04-18T03:39:38.739Z,12.30
2018-04-18T03:42:07.029Z,12.30
2018-04-18T03:44:35.395Z,12.30
2018-04-18T03:47:02.988Z,12.20
2018-04-18T03:49:30.585Z,12.30
2018-04-18T03:51:58.942Z,12.30
2018-04-18T03:54:26.516Z,12.30
2018-04-18T03:56:54.127Z,12.40
2018-04-18T03:59:21.744Z,12.40
2018-04-18T04:01:49.364Z,12.40
2018-04-18T04:04:16.974Z,12.40
2018-04-18T04:06:44.555Z,12.40
2018-04-18T04:09:12.169Z,12.40
2018-04-18T04:11:40.598Z,12.40
2018-04-18T04:14:08.284Z,12.30
2018-04-18T04:16:47.876Z,12.40
2018-04-18T04:19:27.261Z,12.30
2018-04-18T04:22:06.690Z,12.30
2018-04-18T04:24:40.456Z,12.20
2018-04-18T04:27:08.071Z,12.10
2018-04-18T04:29:35.652Z,12.20
2018-04-18T04:32:04.084Z,12.10
2018-04-18T04:34:31.675Z,12.00
2018-04-18T04:36:59.370Z,12.00
2018-04-18T04:39:26.979Z,12.00
2018-04-18T04:41:54.626Z,12.00
2018-04-18T04:44:23.029Z,12.10
2018-04-18T04:46:51.417Z,12.10
2018-04-18T04:49:19.788Z,12.10
2018-04-18T04:51:47.418Z,12.00
2018-04-18T04:54:15.864Z,12.00
2018-04-18T04:56:44.275Z,12.00
2018-04-18T04:59:12.682Z,11.90
2018-04-18T05:01:40.299Z,11.90
2018-04-18T05:04:07.891Z,11.90
2018-04-18T05:06:35.659Z,11.90
2018-04-18T05:09:03.252Z,11.90
2018-04-18T05:11:30.919Z,11.90
2018-04-18T05:13:58.557Z,11.80
2018-04-18T05:16:26.237Z,11.80
2018-04-18T05:18:53.834Z,11.70
2018-04-18T05:21:21.455Z,11.70
2018-04-18T05:23:49.791Z,11.60
2018-04-18T05:26:20.242Z,11.60
2018-04-18T05:28:47.864Z,11.50
2018-04-18T05:31:16.138Z,11.40
2018-04-18T05:33:43.777Z,11.40
2018-04-18T05:36:11.412Z,11.40
2018-04-18T05:38:39.274Z,11.40
2018-04-18T05:41:06.870Z,11.50
2018-04-18T05:43:34.489Z,11.50
2018-04-18T05:46:02.854Z,11.70
2018-04-18T05:48:30.505Z,11.60
2018-04-18T05:50:58.178Z,11.80
2018-04-18T05:53:25.805Z,11.90
2018-04-18T05:55:54.889Z,12.00
2018-04-18T05:58:24.543Z,12.00
2018-04-18T06:00:52.902Z,12.20
2018-04-18T06:03:20.494Z,12.10
2018-04-18T06:05:48.919Z,12.30
2018-04-18T06:08:16.565Z,12.30
2018-04-18T06:10:44.989Z,12.50
2018-04-18T06:13:12.595Z,12.40
2018-04-18T06:15:40.182Z,12.50
2018-04-18T06:18:07.782Z,12.60
2018-04-18T06:20:36.222Z,12.70
2018-04-18T06:23:03.826Z,12.60
2018-04-18T06:25:31.429Z,12.70
2018-04-18T06:27:59.014Z,12.80
2018-04-18T06:30:27.230Z,12.80
2018-04-18T06:32:54.828Z,12.80
2018-04-18T06:35:22.404Z,12.90
2018-04-18T06:37:50.027Z,13.00
2018-04-18T06:40:18.175Z,13.00
2018-04-18T06:42:45.797Z,13.10
2018-04-18T06:45:13.365Z,13.10
2018-04-18T06:47:41.079Z,13.20
2018-04-18T06:50:09.430Z,13.30
2018-04-18T06:52:37.096Z,13.30
2018-04-18T06:55:04.744Z,13.40
2018-04-18T06:57:32.359Z,13.50
2018-04-18T07:00:00.020Z,13.60
2018-04-18T07:02:28.410Z,13.70
2018-04-18T07:04:56.043Z,13.90
2018-04-18T07:07:23.697Z,14.00
2018-04-18T07:09:51.263Z,14.00
2018-04-18T07:13:36.244Z,14.20
2018-04-18T07:16:04.879Z,14.30
2018-04-18T07:18:32.465Z,14.40
2018-04-18T07:21:00.050Z,14.50
2018-04-18T07:23:29.257Z,14.60
2018-04-18T07:26:07.188Z,14.70
2018-04-18T07:28:35.848Z,14.80
2018-04-18T07:31:03.488Z,14.80
2018-04-18T07:33:31.163Z,14.90
2018-04-18T07:35:58.808Z,15.00
2018-04-18T07:38:27.839Z,15.00
2018-04-18T07:40:55.548Z,15.10
2018-04-18T07:43:23.283Z,15.20
2018-04-18T07:45:50.848Z,15.30
2018-04-18T07:48:19.121Z,15.40
2018-04-18T07:50:48.495Z,15.50
2018-04-18T07:53:19.500Z,15.60
2018-04-18T07:55:47.166Z,15.70
2018-04-18T07:58:16.190Z,15.90
2018-04-18T08:00:43.856Z,15.90
2018-04-18T08:03:11.480Z,16.10
2018-04-18T08:05:39.492Z,16.20
2018-04-18T08:08:07.216Z,16.30
2018-04-18T08:10:34.867Z,16.40
2018-04-18T08:13:02.563Z,16.40
2018-04-18T08:15:30.242Z,16.50
2018-04-18T08:17:59.448Z,16.70
2018-04-18T08:20:27.674Z,16.70
2018-04-18T08:22:55.882Z,16.80
2018-04-18T08:25:25.059Z,16.90
2018-04-18T08:27:57.357Z,17.10
2018-04-18T08:30:25.694Z,17.20
2018-04-18T08:32:53.341Z,17.30
2018-04-18T08:35:23.147Z,17.40
2018-04-18T08:37:51.048Z,17.50
2018-04-18T08:40:19.776Z,17.60
2018-04-18T08:42:47.894Z,17.60
2018-04-18T08:45:16.351Z,17.70
2018-04-18T08:47:44.729Z,17.80
2018-04-18T08:50:12.633Z,17.90
2018-04-18T08:52:40.522Z,18.00
2018-04-18T08:55:08.551Z,18.10
2018-04-18T08:57:36.459Z,18.20
2018-04-18T09:00:05.352Z,18.30
2018-04-18T09:02:33.805Z,18.60
2018-04-18T09:05:01.395Z,18.50
2018-04-18T09:07:29.062Z,18.70
2018-04-18T09:09:56.784Z,18.70
2018-04-18T09:12:24.408Z,18.80
2018-04-18T09:14:52.908Z,18.90
2018-04-18T09:17:21.269Z,19.10
2018-04-18T09:19:53.280Z,19.20
2018-04-18T09:22:22.118Z,19.20
2018-04-18T09:24:50.421Z,19.40
2018-04-18T09:27:18.821Z,19.60
2018-04-18T09:29:46.457Z,19.50
2018-04-18T09:32:14.165Z,19.80
2018-04-18T09:34:41.828Z,19.90
2018-04-18T09:37:09.449Z,20.00
2018-04-18T09:39:39.035Z,20.40
2018-04-18T09:42:07.481Z,20.30
2018-04-18T09:44:35.393Z,20.60
2018-04-18T09:47:05.101Z,21.00
2018-04-18T09:49:32.898Z,20.90
2018-04-18T09:52:00.705Z,21.10
2018-04-18T09:54:28.717Z,21.30
2018-04-18T09:56:57.080Z,21.40
2018-04-18T09:59:24.798Z,21.60
2018-04-18T10:01:52.511Z,21.70
2018-04-18T10:04:25.845Z,21.80
2018-04-18T10:06:53.428Z,21.70
2018-04-18T10:09:21.038Z,21.80
2018-04-18T10:11:49.593Z,22.00
2018-04-18T10:14:17.254Z,22.10
2018-04-18T10:16:45.753Z,22.10
2018-04-18T10:19:14.768Z,22.10
2018-04-18T10:21:42.414Z,22.10
2018-04-18T10:24:10.807Z,22.20
2018-04-18T10:26:39.265Z,22.20
2018-04-18T10:29:07.885Z,22.30
2018-04-18T10:31:35.477Z,22.30
2018-04-18T10:34:03.077Z,22.30
2018-04-18T10:36:31.317Z,22.40
2018-04-18T10:38:59.039Z,22.50
2018-04-18T10:41:26.621Z,22.60
2018-04-18T10:43:54.555Z,22.70
2018-04-18T10:46:22.183Z,22.70
2018-04-18T10:48:49.823Z,22.80
2018-04-18T10:51:18.292Z,23.00
2018-04-18T10:53:45.968Z,22.90
2018-04-18T10:56:13.570Z,23.00
2018-04-18T10:58:41.196Z,23.10
2018-04-18T11:01:10.402Z,23.10
2018-04-18T11:03:38.797Z,23.10
2018-04-18T11:06:06.483Z,23.20
2018-04-18T11:08:34.160Z,23.20
2018-04-18T11:11:01.809Z,23.20
2018-04-18T11:13:29.467Z,23.40
2018-04-18T11:15:57.361Z,23.50
2018-04-18T11:18:25.073Z,23.60
2018-04-18T11:20:52.677Z,23.80
2018-04-18T11:23:20.308Z,23.90
2018-04-18T11:25:48.756Z,24.10
2018-04-18T11:28:16.355Z,24.10
2018-04-18T11:30:44.246Z,24.20
2018-04-18T11:33:11.920Z,24.20
2018-04-18T11:35:39.641Z,24.30
2018-04-18T11:38:07.275Z,24.40
2018-04-18T11:40:35.036Z,24.50
2018-04-18T11:43:02.654Z,24.70
2018-04-18T11:45:30.287Z,24.70
2018-04-18T11:48:00.094Z,24.80
2018-04-18T11:50:28.723Z,24.90
2018-04-18T11:52:57.062Z,25.10
2018-04-18T11:55:24.656Z,25.10
2018-04-18T11:57:53.012Z,25.20
2018-04-18T12:00:20.707Z,25.10
2018-04-18T12:02:48.425Z,25.20
2018-04-18T12:05:16.268Z,25.40
2018-04-18T12:07:43.877Z,25.40
2018-04-18T12:10:13.491Z,25.50
2018-04-18T12:12:41.095Z,25.60
2018-04-18T12:15:11.308Z,25.70
2018-04-18T12:17:39.741Z,25.70
2018-04-18T12:20:08.438Z,25.70
2018-04-18T12:22:36.390Z,25.80
2018-04-18T12:25:04.014Z,25.90
2018-04-18T12:27:32.043Z,25.90
2018-04-18T12:29:59.853Z,26.00
2018-04-18T12:32:28.329Z,26.10
2018-04-18T12:34:56.688Z,26.20
2018-04-18T12:37:24.605Z,26.20
2018-04-18T12:39:52.234Z,26.20
2018-04-18T12:42:20.830Z,26.30
2018-04-18T12:44:48.622Z,26.30
2018-04-18T12:47:16.571Z,26.30
2018-04-18T12:49:46.613Z,26.40
2018-04-18T12:52:14.193Z,26.40
2018-04-18T12:54:41.831Z,26.50
2018-04-18T12:57:14.390Z,26.70
2018-04-18T12:59:42.286Z,26.60
2018-04-18T13:02:10.188Z,26.70
2018-04-18T13:04:38.276Z,26.70
2018-04-18T13:07:05.935Z,26.80
2018-04-18T13:09:34.287Z,26.90
2018-04-18T13:12:01.914Z,26.80
2018-04-18T13:14:30.453Z,26.90
2018-04-18T13:17:00.044Z,26.90
2018-04-18T13:19:27.857Z,27.00
2018-04-18T13:21:55.539Z,27.00
2018-04-18T13:24:23.350Z,27.00
2018-04-18T13:26:51.027Z,27.00
2018-04-18T13:29:18.704Z,27.00
2018-04-18T13:31:46.489Z,27.10
2018-04-18T13:34:14.408Z,27.00
2018-04-18T13:36:41.981Z,27.10
2018-04-18T13:39:09.817Z,27.00
2018-04-18T13:41:37.521Z,27.10
2018-04-18T13:44:05.242Z,27.10
2018-04-18T13:46:34.526Z,27.30
2018-04-18T13:49:02.217Z,27.20
2018-04-18T13:51:29.911Z,27.20
2018-04-18T13:53:58.763Z,27.30
2018-04-18T13:56:26.585Z,27.30
2018-04-18T13:58:56.368Z,27.40
2018-04-18T14:01:25.846Z,27.40
2018-04-18T14:03:53.502Z,27.40
2018-04-18T14:06:21.881Z,27.80
2018-04-18T14:08:49.499Z,27.70
2018-04-18T14:11:17.112Z,27.80
2018-04-18T14:13:44.752Z,27.80
2018-04-18T14:16:12.365Z,27.80
2018-04-18T14:18:40.137Z,27.80
2018-04-18T14:21:07.768Z,27.80
2018-04-18T14:23:35.413Z,27.90
2018-04-18T14:26:03.876Z,27.90
2018-04-18T14:28:33.049Z,27.90
2018-04-18T14:31:00.730Z,28.00
2018-04-18T14:33:29.247Z,28.10
2018-04-18T14:35:57.868Z,28.10
2018-04-18T14:38:26.680Z,28.20
2018-04-18T14:40:55.481Z,28.20
2018-04-18T14:43:23.141Z,28.20
2018-04-18T14:45:51.891Z,28.40
2018-04-18T14:48:19.475Z,28.30
2018-04-18T14:50:48.625Z,28.40
2018-04-18T14:53:18.222Z,28.60
2018-04-18T14:55:46.582Z,28.60
2018-04-18T14:58:14.510Z,28.70
2018-04-18T15:00:42.324Z,28.70
2018-04-18T15:05:44.370Z,28.90
2018-04-18T15:08:12.595Z,29.00
2018-04-18T15:10:41.880Z,29.10
2018-04-18T15:13:09.701Z,29.20
2018-04-18T15:15:38.578Z,29.20
2018-04-18T15:18:06.815Z,29.20
2018-04-18T15:20:35.248Z,29.10
2018-04-18T15:23:03.289Z,29.10
2018-04-18T15:25:31.700Z,29.20
2018-04-18T15:27:59.297Z,29.20
2018-04-18T15:30:26.880Z,29.10
2018-04-18T15:32:54.542Z,29.20
2018-04-18T15:35:22.776Z,29.20
2018-04-18T15:37:51.010Z,29.20
2018-04-18T15:40:19.156Z,29.10
2018-04-18T15:42:47.068Z,29.10
2018-04-18T15:45:15.666Z,29.20
2018-04-18T15:47:45.168Z,29.30
2018-04-18T15:50:12.857Z,29.20
2018-04-18T15:52:42.197Z,29.20
2018-04-18T15:55:10.665Z,29.20
2018-04-18T15:57:42.576Z,29.30
2018-04-18T16:00:11.046Z,29.40
2018-04-18T16:02:41.060Z,29.40
2018-04-18T16:05:10.160Z,29.40
2018-04-18T16:07:38.212Z,29.50
2018-04-18T16:10:05.834Z,29.50
2018-04-18T16:12:35.126Z,29.60
2018-04-18T16:15:03.520Z,29.50
2018-04-18T16:17:32.002Z,29.70
2018-04-18T16:20:00.602Z,29.80
2018-04-18T16:22:29.814Z,29.90
2018-04-18T16:24:57.459Z,29.80
2018-04-18T16:27:25.032Z,29.80
2018-04-18T16:29:55.047Z,29.70
2018-04-18T16:32:22.623Z,29.70
2018-04-18T16:34:51.006Z,29.60
2018-04-18T16:37:18.636Z,29.60
2018-04-18T16:39:46.860Z,29.60
2018-04-18T16:42:17.155Z,29.50
2018-04-18T16:44:45.398Z,29.50
2018-04-18T16:47:13.849Z,29.50
2018-04-18T16:49:41.912Z,29.40
2018-04-18T16:52:09.527Z,29.50
2018-04-18T16:54:37.270Z,29.40
2018-04-18T16:57:06.680Z,29.40
2018-04-18T16:59:34.997Z,29.40
2018-04-18T17:02:02.652Z,29.40
2018-04-18T17:04:30.821Z,29.30
2018-04-18T17:07:00.314Z,29.10
2018-04-18T17:09:28.753Z,29.00
2018-04-18T17:11:56.419Z,29.00
2018-04-18T17:14:24.150Z,28.90
2018-04-18T17:16:51.796Z,28.80
2018-04-18T17:19:20.165Z,28.70
2018-04-18T17:21:48.055Z,28.60
2018-04-18T17:24:15.756Z,28.60
2018-04-18T17:26:43.474Z,28.50
2018-04-18T17:29:11.356Z,28.50
2018-04-18T17:31:39.918Z,28.30
2018-04-18T17:34:07.580Z,28.30
2018-04-18T17:36:35.300Z,28.20
2018-04-18T17:39:02.977Z,28.10
2018-04-18T17:41:30.654Z,27.90
2018-04-18T17:43:59.065Z,27.70
2018-04-18T17:46:26.741Z,27.70
2018-04-18T17:48:54.390Z,27.60
2018-04-18T17:51:22.781Z,27.30
2018-04-18T17:53:51.221Z,27.10
2018-04-18T17:56:18.927Z,27.10
2018-04-18T17:58:46.565Z,26.90
2018-04-18T18:01:17.328Z,26.80
2018-04-18T18:03:45.785Z,26.40
2018-04-18T18:06:13.953Z,26.40
2018-04-18T18:08:42.306Z,26.00
2018-04-18T18:11:09.996Z,25.90
2018-04-18T18:13:38.090Z,25.80
2018-04-18T18:16:06.485Z,25.40
2018-04-18T18:18:34.191Z,25.30
2018-04-18T18:21:01.853Z,25.20
2018-04-18T18:23:29.498Z,25.00
2018-04-18T18:25:58.270Z,24.70
2018-04-18T18:28:25.917Z,24.70
2018-04-18T18:30:53.532Z,24.60
2018-04-18T18:33:21.881Z,24.40
2018-04-18T18:35:53.238Z,24.30
2018-04-18T18:38:20.833Z,24.20
2018-04-18T18:40:48.415Z,24.10
2018-04-18T18:43:16.004Z,24.00
2018-04-18T18:45:44.293Z,23.90
2018-04-18T18:48:11.957Z,23.80
2018-04-18T18:50:39.613Z,23.70
2018-04-18T18:53:07.216Z,23.60
2018-04-18T18:55:34.806Z,23.50
2018-04-18T18:58:04.481Z,23.40
2018-04-18T19:00:32.477Z,23.30
2018-04-18T19:03:00.061Z,23.30
2018-04-18T19:05:27.691Z,23.30
2018-04-18T19:07:56.132Z,23.10
2018-04-18T19:10:23.880Z,23.00
2018-04-18T19:12:51.697Z,23.00
2018-04-18T19:15:19.407Z,23.00
2018-04-18T19:17:47.003Z,22.90
2018-04-18T19:20:14.627Z,22.80
2018-04-18T19:22:42.202Z,22.80
2018-04-18T19:25:09.851Z,22.70
2018-04-18T19:27:38.390Z,22.70
2018-04-18T19:30:06.049Z,22.60
2018-04-18T19:32:33.882Z,22.50
2018-04-18T19:35:01.525Z,22.50
2018-04-18T19:37:29.165Z,22.40
2018-04-18T19:39:56.752Z,22.40
2018-04-18T19:42:25.453Z,22.30
2018-04-18T19:44:53.094Z,22.20
2018-04-18T19:47:20.709Z,22.20
2018-04-18T19:49:48.302Z,22.20
2018-04-18T19:52:15.892Z,22.10
2018-04-18T19:54:43.746Z,22.10
2018-04-18T19:57:11.336Z,22.00
2018-04-18T19:59:39.290Z,22.00
2018-04-18T20:02:07.640Z,21.80
2018-04-18T20:04:35.238Z,21.80
2018-04-18T20:07:03.602Z,21.70
2018-04-18T20:09:31.246Z,21.60
2018-04-18T20:11:58.822Z,21.60
2018-04-18T20:14:26.414Z,21.60
2018-04-18T20:16:54.028Z,21.50
2018-04-18T20:19:22.364Z,21.40
2018-04-18T20:21:50.362Z,21.30
2018-04-18T20:24:17.921Z,21.30
2018-04-18T20:26:45.537Z,21.20
2018-04-18T20:29:13.488Z,21.20
2018-04-18T20:31:41.214Z,21.10
2018-04-18T20:34:08.787Z,21.00
2018-04-18T20:36:47.786Z,20.90
2018-04-18T20:39:15.568Z,20.90
2018-04-18T20:41:43.187Z,20.80
2018-04-18T20:44:10.781Z,20.70
2018-04-18T20:46:38.682Z,20.60
2018-04-18T20:49:06.272Z,20.60
2018-04-18T20:51:34.521Z,20.50
2018-04-18T20:54:02.245Z,20.50
2018-04-18T20:56:29.894Z,20.40
2018-04-18T20:58:58.488Z,20.40
2018-04-18T21:01:26.552Z,20.40
2018-04-18T21:03:55.368Z,20.20
2018-04-18T21:06:23.549Z,20.20
2018-04-18T21:08:51.113Z,20.20
2018-04-18T21:11:18.674Z,20.10
2018-04-18T21:13:46.296Z,20.10
2018-04-18T21:16:14.652Z,20.00
2018-04-18T21:18:42.225Z,19.90
2018-04-18T21:21:10.637Z,19.90
2018-04-18T21:23:38.490Z,19.80
2018-04-18T21:26:06.135Z,19.80
2018-04-18T21:28:35.155Z,19.80
2018-04-18T21:31:02.814Z,19.70
2018-04-18T21:33:30.415Z,19.70
2018-04-18T21:35:58.018Z,19.60
2018-04-18T21:38:25.660Z,19.60
2018-04-18T21:40:53.207Z,19.50
2018-04-18T21:43:20.873Z,19.40
2018-04-18T21:45:48.465Z,19.40
2018-04-18T21:48:16.048Z,19.40
2018-04-18T21:50:43.814Z,19.30
2018-04-18T21:53:11.747Z,19.20
2018-04-18T21:55:39.343Z,19.10
2018-04-18T21:58:07.026Z,19.10
2018-04-18T22:00:34.674Z,19.00
2018-04-18T22:03:02.281Z,18.90
2018-04-18T22:05:30.715Z,18.90
2018-04-18T22:08:00.177Z,18.70
2018-04-18T22:10:28.811Z,18.70
2018-04-18T22:12:57.217Z,18.60
2018-04-18T22:15:24.806Z,18.50
2018-04-18T22:17:52.452Z,18.60
2018-04-18T22:20:20.026Z,18.50
2018-04-18T22:22:48.407Z,18.40
2018-04-18T22:25:15.988Z,18.40
2018-04-18T22:27:43.611Z,18.40
2018-04-18T22:30:11.253Z,18.30
2018-04-18T22:32:39.155Z,18.30
2018-04-18T22:35:06.726Z,18.20
2018-04-18T22:37:35.185Z,18.10
2018-04-18T22:40:02.790Z,18.10
2018-04-18T22:42:31.207Z,18.10
2018-04-18T22:44:58.854Z,18.00
2018-04-18T22:47:26.421Z,18.00
2018-04-18T22:49:54.005Z,18.00
2018-04-18T22:52:22.392Z,17.90
2018-04-18T22:54:49.988Z,17.80
2018-04-18T22:57:17.577Z,17.80
2018-04-18T22:59:45.325Z,17.80
2018-04-18T23:02:13.732Z,17.70
2018-04-18T23:04:41.328Z,17.70
2018-04-18T23:07:08.962Z,17.70
2018-04-18T23:09:37.391Z,17.60
2018-04-18T23:12:04.962Z,17.50
2018-04-18T23:14:32.614Z,17.60
2018-04-18T23:17:00.222Z,17.50
2018-04-18T23:19:27.805Z,17.50
2018-04-18T23:21:55.409Z,17.40
2018-04-18T23:24:23.032Z,17.40
2018-04-18T23:26:50.618Z,17.40
2018-04-18T23:29:18.966Z,17.30
2018-04-18T23:31:47.343Z,17.20
2018-04-18T23:34:15.738Z,17.20
2018-04-18T23:36:44.088Z,17.10
2018-04-18T23:39:11.689Z,17.10
2018-04-18T23:41:39.587Z,17.10
2018-04-18T23:44:07.197Z,17.00
2018-04-18T23:46:34.795Z,17.00
2018-04-18T23:49:02.394Z,17.00
2018-04-18T23:51:31.579Z,16.90
2018-04-18T23:53:59.181Z,16.80
2018-04-18T23:56:27.534Z,16.80
2018-04-18T23:58:55.137Z,16.70
